sensor_id;sensor_type;location;lat;lon;timestamp;temperature;humidity
42913;DHT22;50720;54.324;18.558;2023-05-20T00:01:46;10.40;99.90
42913;DHT22;50720;54.324;18.558;2023-05-20T00:04:16;10.40;99.90
42913;DHT22;50720;54.324;18.558;2023-05-20T00:06:46;10.50;99.90
42913;DHT22;50720;54.324;18.558;2023-05-20T00:09:15;10.40;99.90
42913;DHT22;50720;54.324;18.558;2023-05-20T00:11:45;10.30;99.90
42913;DHT22;50720;54.324;18.558;2023-05-20T00:14:15;10.40;99.90
42913;DHT22;50720;54.324;18.558;2023-05-20T00:16:46;10.40;99.90
42913;DHT22;50720;54.324;18.558;2023-05-20T00:19:15;10.30;99.90
42913;DHT22;50720;54.324;18.558;2023-05-20T00:21:45;10.30;99.90
42913;DHT22;50720;54.324;18.558;2023-05-20T00:24:15;10.30;99.90
42913;DHT22;50720;54.324;18.558;2023-05-20T00:26:44;10.30;99.90
42913;DHT22;50720;54.324;18.558;2023-05-20T00:29:14;10.30;99.90
42913;DHT22;50720;54.324;18.558;2023-05-20T00:31:43;10.20;99.90
42913;DHT22;50720;54.324;18.558;2023-05-20T00:34:14;10.20;99.90
42913;DHT22;50720;54.324;18.558;2023-05-20T00:36:44;10.30;99.90
42913;DHT22;50720;54.324;18.558;2023-05-20T00:39:13;10.30;99.90
42913;DHT22;50720;54.324;18.558;2023-05-20T00:41:42;10.30;99.90
42913;DHT22;50720;54.324;18.558;2023-05-20T00:44:12;10.30;99.90
42913;DHT22;50720;54.324;18.558;2023-05-20T00:46:42;10.30;99.90
42913;DHT22;50720;54.324;18.558;2023-05-20T00:49:11;10.20;99.90
42913;DHT22;50720;54.324;18.558;2023-05-20T00:51:42;10.30;99.90
42913;DHT22;50720;54.324;18.558;2023-05-20T00:54:12;10.30;99.90
42913;DHT22;50720;54.324;18.558;2023-05-20T00:56:42;10.30;99.90
42913;DHT22;50720;54.324;18.558;2023-05-20T00:59:12;10.30;99.90
42913;DHT22;50720;54.324;18.558;2023-05-20T01:01:42;10.30;99.90
42913;DHT22;50720;54.324;18.558;2023-05-20T01:04:11;10.40;99.90
42913;DHT22;50720;54.324;18.558;2023-05-20T01:06:43;10.40;99.90
42913;DHT22;50720;54.324;18.558;2023-05-20T01:09:13;10.50;99.90
42913;DHT22;50720;54.324;18.558;2023-05-20T01:11:49;10.50;99.90
42913;DHT22;50720;54.324;18.558;2023-05-20T01:14:21;10.50;99.90
42913;DHT22;50720;54.324;18.558;2023-05-20T01:16:53;10.50;99.90
42913;DHT22;50720;54.324;18.558;2023-05-20T01:19:30;10.50;99.90
42913;DHT22;50720;54.324;18.558;2023-05-20T01:22:02;10.50;99.90
42913;DHT22;50720;54.324;18.558;2023-05-20T01:24:35;10.60;99.90
42913;DHT22;50720;54.324;18.558;2023-05-20T01:27:04;10.50;99.90
42913;DHT22;50720;54.324;18.558;2023-05-20T01:29:37;10.50;99.90
42913;DHT22;50720;54.324;18.558;2023-05-20T01:32:10;10.50;99.90
42913;DHT22;50720;54.324;18.558;2023-05-20T01:34:41;10.50;99.90
42913;DHT22;50720;54.324;18.558;2023-05-20T01:37:12;10.50;99.90
42913;DHT22;50720;54.324;18.558;2023-05-20T01:39:45;10.50;99.90
42913;DHT22;50720;54.324;18.558;2023-05-20T01:42:15;10.60;99.90
42913;DHT22;50720;54.324;18.558;2023-05-20T01:44:46;10.50;99.90
42913;DHT22;50720;54.324;18.558;2023-05-20T01:47:15;10.50;99.90
42913;DHT22;50720;54.324;18.558;2023-05-20T01:49:44;10.50;99.90
42913;DHT22;50720;54.324;18.558;2023-05-20T01:52:14;10.50;99.90
42913;DHT22;50720;54.324;18.558;2023-05-20T01:54:45;10.50;99.90
42913;DHT22;50720;54.324;18.558;2023-05-20T01:57:18;10.50;99.90
42913;DHT22;50720;54.324;18.558;2023-05-20T01:59:48;10.40;99.90
42913;DHT22;50720;54.324;18.558;2023-05-20T02:02:17;10.40;99.90
42913;DHT22;50720;54.324;18.558;2023-05-20T02:04:49;10.40;99.90
42913;DHT22;50720;54.324;18.558;2023-05-20T02:07:18;10.40;99.90
42913;DHT22;50720;54.324;18.558;2023-05-20T02:09:49;10.40;99.90
42913;DHT22;50720;54.324;18.558;2023-05-20T02:12:18;10.50;99.90
42913;DHT22;50720;54.324;18.558;2023-05-20T02:14:48;10.50;99.90
42913;DHT22;50720;54.324;18.558;2023-05-20T02:17:18;10.40;99.90
42913;DHT22;50720;54.324;18.558;2023-05-20T02:19:48;10.40;99.90
42913;DHT22;50720;54.324;18.558;2023-05-20T02:22:17;10.40;99.90
42913;DHT22;50720;54.324;18.558;2023-05-20T02:24:48;10.40;99.90
42913;DHT22;50720;54.324;18.558;2023-05-20T02:27:18;10.40;99.90
42913;DHT22;50720;54.324;18.558;2023-05-20T02:29:47;10.40;99.90
42913;DHT22;50720;54.324;18.558;2023-05-20T02:32:17;10.40;99.90
42913;DHT22;50720;54.324;18.558;2023-05-20T02:34:47;10.40;99.90
42913;DHT22;50720;54.324;18.558;2023-05-20T02:37:17;10.50;99.90
42913;DHT22;50720;54.324;18.558;2023-05-20T02:39:49;10.40;99.90
42913;DHT22;50720;54.324;18.558;2023-05-20T02:42:18;10.40;99.90
42913;DHT22;50720;54.324;18.558;2023-05-20T02:44:47;10.50;99.90
42913;DHT22;50720;54.324;18.558;2023-05-20T02:47:17;10.40;99.90
42913;DHT22;50720;54.324;18.558;2023-05-20T02:49:46;10.40;99.90
42913;DHT22;50720;54.324;18.558;2023-05-20T02:52:16;10.40;99.90
42913;DHT22;50720;54.324;18.558;2023-05-20T02:54:46;10.40;99.90
42913;DHT22;50720;54.324;18.558;2023-05-20T02:57:16;10.40;99.90
42913;DHT22;50720;54.324;18.558;2023-05-20T02:59:46;10.40;99.90
42913;DHT22;50720;54.324;18.558;2023-05-20T03:02:15;10.40;99.90
42913;DHT22;50720;54.324;18.558;2023-05-20T03:04:45;10.40;99.90
42913;DHT22;50720;54.324;18.558;2023-05-20T03:07:14;10.40;99.90
42913;DHT22;50720;54.324;18.558;2023-05-20T03:09:48;10.40;99.90
42913;DHT22;50720;54.324;18.558;2023-05-20T03:12:19;10.50;99.90
42913;DHT22;50720;54.324;18.558;2023-05-20T03:14:49;10.50;99.90
42913;DHT22;50720;54.324;18.558;2023-05-20T03:17:21;10.40;99.90
42913;DHT22;50720;54.324;18.558;2023-05-20T03:19:51;10.40;99.90
42913;DHT22;50720;54.324;18.558;2023-05-20T03:22:21;10.50;99.90
42913;DHT22;50720;54.324;18.558;2023-05-20T03:24:50;10.50;99.90
42913;DHT22;50720;54.324;18.558;2023-05-20T03:27:21;10.60;99.90
42913;DHT22;50720;54.324;18.558;2023-05-20T03:29:53;10.60;99.90
42913;DHT22;50720;54.324;18.558;2023-05-20T03:32:23;10.60;99.90
42913;DHT22;50720;54.324;18.558;2023-05-20T03:34:52;10.70;99.90
42913;DHT22;50720;54.324;18.558;2023-05-20T03:37:24;10.70;99.90
42913;DHT22;50720;54.324;18.558;2023-05-20T03:39:54;10.70;99.90
42913;DHT22;50720;54.324;18.558;2023-05-20T03:42:25;10.70;99.90
42913;DHT22;50720;54.324;18.558;2023-05-20T03:44:55;10.70;99.90
42913;DHT22;50720;54.324;18.558;2023-05-20T03:47:24;10.80;99.90
42913;DHT22;50720;54.324;18.558;2023-05-20T03:49:54;10.80;99.90
42913;DHT22;50720;54.324;18.558;2023-05-20T03:52:24;10.80;99.90
42913;DHT22;50720;54.324;18.558;2023-05-20T03:54:53;10.90;99.90
42913;DHT22;50720;54.324;18.558;2023-05-20T03:57:25;10.90;99.90
42913;DHT22;50720;54.324;18.558;2023-05-20T03:59:56;10.90;99.90
42913;DHT22;50720;54.324;18.558;2023-05-20T04:02:26;11.00;99.90
42913;DHT22;50720;54.324;18.558;2023-05-20T04:04:56;10.90;99.90
42913;DHT22;50720;54.324;18.558;2023-05-20T04:07:25;11.00;99.90
42913;DHT22;50720;54.324;18.558;2023-05-20T04:09:57;11.00;99.90
42913;DHT22;50720;54.324;18.558;2023-05-20T04:12:28;11.10;99.90
42913;DHT22;50720;54.324;18.558;2023-05-20T04:14:59;11.10;99.90
42913;DHT22;50720;54.324;18.558;2023-05-20T04:17:29;11.20;99.90
42913;DHT22;50720;54.324;18.558;2023-05-20T04:19:59;11.20;99.90
42913;DHT22;50720;54.324;18.558;2023-05-20T04:22:29;11.20;99.90
42913;DHT22;50720;54.324;18.558;2023-05-20T04:24:58;11.30;99.90
42913;DHT22;50720;54.324;18.558;2023-05-20T04:27:31;11.30;99.90
42913;DHT22;50720;54.324;18.558;2023-05-20T04:30:02;11.30;99.90
42913;DHT22;50720;54.324;18.558;2023-05-20T04:32:32;11.40;99.90
42913;DHT22;50720;54.324;18.558;2023-05-20T04:35:03;11.40;99.90
42913;DHT22;50720;54.324;18.558;2023-05-20T04:37:35;11.60;99.90
42913;DHT22;50720;54.324;18.558;2023-05-20T04:40:06;11.50;99.90
42913;DHT22;50720;54.324;18.558;2023-05-20T04:42:37;11.60;99.90
42913;DHT22;50720;54.324;18.558;2023-05-20T04:45:08;11.80;99.90
42913;DHT22;50720;54.324;18.558;2023-05-20T04:47:38;11.80;99.90
42913;DHT22;50720;54.324;18.558;2023-05-20T04:50:10;11.90;99.90
42913;DHT22;50720;54.324;18.558;2023-05-20T04:52:40;11.90;99.90
42913;DHT22;50720;54.324;18.558;2023-05-20T04:55:13;11.90;99.90
42913;DHT22;50720;54.324;18.558;2023-05-20T04:57:44;11.90;99.90
42913;DHT22;50720;54.324;18.558;2023-05-20T05:00:14;12.00;99.90
42913;DHT22;50720;54.324;18.558;2023-05-20T05:02:44;12.00;99.90
42913;DHT22;50720;54.324;18.558;2023-05-20T05:05:15;12.00;99.90
42913;DHT22;50720;54.324;18.558;2023-05-20T05:07:44;12.00;99.90
42913;DHT22;50720;54.324;18.558;2023-05-20T05:10:16;12.10;99.90
42913;DHT22;50720;54.324;18.558;2023-05-20T05:12:47;12.20;99.90
42913;DHT22;50720;54.324;18.558;2023-05-20T05:15:17;12.30;99.90
42913;DHT22;50720;54.324;18.558;2023-05-20T05:17:46;12.30;99.90
42913;DHT22;50720;54.324;18.558;2023-05-20T05:20:16;12.30;99.90
42913;DHT22;50720;54.324;18.558;2023-05-20T05:22:46;12.30;99.90
42913;DHT22;50720;54.324;18.558;2023-05-20T05:25:17;12.30;99.90
42913;DHT22;50720;54.324;18.558;2023-05-20T05:27:48;12.30;99.90
42913;DHT22;50720;54.324;18.558;2023-05-20T05:30:18;12.40;99.90
42913;DHT22;50720;54.324;18.558;2023-05-20T05:32:48;12.30;99.90
42913;DHT22;50720;54.324;18.558;2023-05-20T05:35:19;12.40;99.90
42913;DHT22;50720;54.324;18.558;2023-05-20T05:37:48;12.40;99.90
42913;DHT22;50720;54.324;18.558;2023-05-20T05:40:18;12.40;99.90
42913;DHT22;50720;54.324;18.558;2023-05-20T05:42:49;12.40;99.90
42913;DHT22;50720;54.324;18.558;2023-05-20T05:45:19;12.50;99.90
42913;DHT22;50720;54.324;18.558;2023-05-20T05:47:48;12.40;99.90
42913;DHT22;50720;54.324;18.558;2023-05-20T05:50:19;12.50;99.90
42913;DHT22;50720;54.324;18.558;2023-05-20T05:52:48;12.50;99.90
42913;DHT22;50720;54.324;18.558;2023-05-20T05:55:18;12.60;99.90
42913;DHT22;50720;54.324;18.558;2023-05-20T05:57:48;12.50;99.90
42913;DHT22;50720;54.324;18.558;2023-05-20T06:00:19;12.50;99.90
42913;DHT22;50720;54.324;18.558;2023-05-20T06:02:48;12.60;99.90
42913;DHT22;50720;54.324;18.558;2023-05-20T06:05:18;12.60;99.90
42913;DHT22;50720;54.324;18.558;2023-05-20T06:07:48;12.60;99.90
42913;DHT22;50720;54.324;18.558;2023-05-20T06:10:18;12.60;99.90
42913;DHT22;50720;54.324;18.558;2023-05-20T06:12:49;12.60;99.90
42913;DHT22;50720;54.324;18.558;2023-05-20T06:15:18;12.60;99.90
42913;DHT22;50720;54.324;18.558;2023-05-20T06:17:48;12.70;99.90
42913;DHT22;50720;54.324;18.558;2023-05-20T06:20:18;12.80;99.90
42913;DHT22;50720;54.324;18.558;2023-05-20T06:22:47;12.90;99.90
42913;DHT22;50720;54.324;18.558;2023-05-20T06:25:17;12.90;99.90
42913;DHT22;50720;54.324;18.558;2023-05-20T06:27:46;13.00;99.90
42913;DHT22;50720;54.324;18.558;2023-05-20T06:30:18;13.00;99.90
42913;DHT22;50720;54.324;18.558;2023-05-20T06:32:47;13.20;99.90
42913;DHT22;50720;54.324;18.558;2023-05-20T06:35:17;13.30;99.90
42913;DHT22;50720;54.324;18.558;2023-05-20T06:37:46;13.30;99.90
42913;DHT22;50720;54.324;18.558;2023-05-20T06:40:16;13.40;99.90
42913;DHT22;50720;54.324;18.558;2023-05-20T06:42:46;13.40;99.90
42913;DHT22;50720;54.324;18.558;2023-05-20T06:45:17;13.50;99.90
42913;DHT22;50720;54.324;18.558;2023-05-20T06:47:47;13.50;99.90
42913;DHT22;50720;54.324;18.558;2023-05-20T06:50:17;13.70;99.90
42913;DHT22;50720;54.324;18.558;2023-05-20T06:52:46;13.70;99.90
42913;DHT22;50720;54.324;18.558;2023-05-20T06:55:16;13.80;99.90
42913;DHT22;50720;54.324;18.558;2023-05-20T06:57:46;13.80;99.90
42913;DHT22;50720;54.324;18.558;2023-05-20T07:00:17;13.90;99.90
42913;DHT22;50720;54.324;18.558;2023-05-20T07:02:46;14.00;99.90
42913;DHT22;50720;54.324;18.558;2023-05-20T07:05:16;14.20;99.90
42913;DHT22;50720;54.324;18.558;2023-05-20T07:07:46;14.40;99.90
42913;DHT22;50720;54.324;18.558;2023-05-20T07:10:16;14.50;99.90
42913;DHT22;50720;54.324;18.558;2023-05-20T07:12:45;14.60;99.90
42913;DHT22;50720;54.324;18.558;2023-05-20T07:15:17;14.50;99.90
42913;DHT22;50720;54.324;18.558;2023-05-20T07:17:46;14.60;99.90
42913;DHT22;50720;54.324;18.558;2023-05-20T07:20:16;14.60;99.90
42913;DHT22;50720;54.324;18.558;2023-05-20T07:22:46;14.70;99.90
42913;DHT22;50720;54.324;18.558;2023-05-20T07:25:17;14.80;99.90
42913;DHT22;50720;54.324;18.558;2023-05-20T07:27:47;15.00;99.90
42913;DHT22;50720;54.324;18.558;2023-05-20T07:30:18;15.20;99.90
42913;DHT22;50720;54.324;18.558;2023-05-20T07:32:47;15.30;99.90
42913;DHT22;50720;54.324;18.558;2023-05-20T07:35:17;15.50;99.90
42913;DHT22;50720;54.324;18.558;2023-05-20T07:37:46;15.60;99.90
42913;DHT22;50720;54.324;18.558;2023-05-20T07:40:16;15.60;99.90
42913;DHT22;50720;54.324;18.558;2023-05-20T07:42:46;15.50;99.90
42913;DHT22;50720;54.324;18.558;2023-05-20T07:45:15;15.80;99.90
42913;DHT22;50720;54.324;18.558;2023-05-20T07:47:46;15.80;99.90
42913;DHT22;50720;54.324;18.558;2023-05-20T07:50:16;15.70;99.90
42913;DHT22;50720;54.324;18.558;2023-05-20T07:52:45;15.60;99.90
42913;DHT22;50720;54.324;18.558;2023-05-20T07:55:21;15.60;99.90
42913;DHT22;50720;54.324;18.558;2023-05-20T07:57:51;15.80;99.90
42913;DHT22;50720;54.324;18.558;2023-05-20T08:00:21;15.80;99.90
42913;DHT22;50720;54.324;18.558;2023-05-20T08:02:52;15.80;99.90
42913;DHT22;50720;54.324;18.558;2023-05-20T08:05:22;15.90;99.90
42913;DHT22;50720;54.324;18.558;2023-05-20T08:07:52;15.80;99.90
42913;DHT22;50720;54.324;18.558;2023-05-20T08:10:21;15.90;99.90
42913;DHT22;50720;54.324;18.558;2023-05-20T08:12:51;15.90;99.90
42913;DHT22;50720;54.324;18.558;2023-05-20T08:15:21;16.00;99.90
42913;DHT22;50720;54.324;18.558;2023-05-20T08:17:51;16.00;99.90
42913;DHT22;50720;54.324;18.558;2023-05-20T08:20:21;16.20;99.90
42913;DHT22;50720;54.324;18.558;2023-05-20T08:22:53;16.20;99.90
42913;DHT22;50720;54.324;18.558;2023-05-20T08:25:23;16.10;99.90
42913;DHT22;50720;54.324;18.558;2023-05-20T08:27:52;16.10;99.90
42913;DHT22;50720;54.324;18.558;2023-05-20T08:30:22;15.90;99.90
42913;DHT22;50720;54.324;18.558;2023-05-20T08:32:53;16.00;99.90
42913;DHT22;50720;54.324;18.558;2023-05-20T08:35:23;16.00;99.90
42913;DHT22;50720;54.324;18.558;2023-05-20T08:37:53;16.10;99.90
42913;DHT22;50720;54.324;18.558;2023-05-20T08:40:23;16.10;99.90
42913;DHT22;50720;54.324;18.558;2023-05-20T08:42:52;16.20;99.90
42913;DHT22;50720;54.324;18.558;2023-05-20T08:45:23;16.30;99.90
42913;DHT22;50720;54.324;18.558;2023-05-20T08:47:57;16.50;99.90
42913;DHT22;50720;54.324;18.558;2023-05-20T08:50:26;16.50;99.90
42913;DHT22;50720;54.324;18.558;2023-05-20T08:52:56;16.60;99.90
42913;DHT22;50720;54.324;18.558;2023-05-20T08:55:37;16.70;99.90
42913;DHT22;50720;54.324;18.558;2023-05-20T08:58:10;16.70;99.90
42913;DHT22;50720;54.324;18.558;2023-05-20T09:00:40;16.70;99.90
42913;DHT22;50720;54.324;18.558;2023-05-20T09:03:11;16.80;99.90
42913;DHT22;50720;54.324;18.558;2023-05-20T09:05:41;16.70;99.90
42913;DHT22;50720;54.324;18.558;2023-05-20T09:08:10;16.80;99.90
42913;DHT22;50720;54.324;18.558;2023-05-20T09:10:41;16.90;99.90
42913;DHT22;50720;54.324;18.558;2023-05-20T09:13:11;16.80;99.90
42913;DHT22;50720;54.324;18.558;2023-05-20T09:15:40;16.90;99.90
42913;DHT22;50720;54.324;18.558;2023-05-20T09:18:11;16.90;99.90
42913;DHT22;50720;54.324;18.558;2023-05-20T09:20:41;16.90;99.90
42913;DHT22;50720;54.324;18.558;2023-05-20T09:23:10;17.00;99.90
42913;DHT22;50720;54.324;18.558;2023-05-20T09:25:40;17.00;99.90
42913;DHT22;50720;54.324;18.558;2023-05-20T09:28:10;17.00;99.90
42913;DHT22;50720;54.324;18.558;2023-05-20T09:30:39;16.90;99.90
42913;DHT22;50720;54.324;18.558;2023-05-20T09:33:14;17.10;99.90
42913;DHT22;50720;54.324;18.558;2023-05-20T09:35:43;17.20;99.90
42913;DHT22;50720;54.324;18.558;2023-05-20T09:38:13;17.30;99.90
42913;DHT22;50720;54.324;18.558;2023-05-20T09:40:44;17.40;99.90
42913;DHT22;50720;54.324;18.558;2023-05-20T09:43:14;17.50;99.90
42913;DHT22;50720;54.324;18.558;2023-05-20T09:45:44;17.40;99.90
42913;DHT22;50720;54.324;18.558;2023-05-20T09:48:16;17.30;99.90
42913;DHT22;50720;54.324;18.558;2023-05-20T09:50:47;17.30;99.90
42913;DHT22;50720;54.324;18.558;2023-05-20T09:53:17;17.30;99.90
42913;DHT22;50720;54.324;18.558;2023-05-20T09:55:47;17.30;99.90
42913;DHT22;50720;54.324;18.558;2023-05-20T09:58:19;17.20;99.90
42913;DHT22;50720;54.324;18.558;2023-05-20T10:00:49;17.20;99.90
42913;DHT22;50720;54.324;18.558;2023-05-20T10:03:21;17.20;99.90
42913;DHT22;50720;54.324;18.558;2023-05-20T10:06:05;17.20;99.90
42913;DHT22;50720;54.324;18.558;2023-05-20T10:08:55;17.30;99.90
42913;DHT22;50720;54.324;18.558;2023-05-20T10:11:34;17.30;99.90
42913;DHT22;50720;54.324;18.558;2023-05-20T10:14:30;17.00;99.90
42913;DHT22;50720;54.324;18.558;2023-05-20T10:17:08;16.60;99.90
42913;DHT22;50720;54.324;18.558;2023-05-20T10:19:40;16.40;99.90
42913;DHT22;50720;54.324;18.558;2023-05-20T10:22:10;16.20;99.90
42913;DHT22;50720;54.324;18.558;2023-05-20T10:24:42;16.10;99.90
42913;DHT22;50720;54.324;18.558;2023-05-20T10:27:13;15.90;99.90
42913;DHT22;50720;54.324;18.558;2023-05-20T10:29:45;15.60;99.90
42913;DHT22;50720;54.324;18.558;2023-05-20T10:32:23;15.50;99.90
42913;DHT22;50720;54.324;18.558;2023-05-20T10:34:58;15.40;99.90
42913;DHT22;50720;54.324;18.558;2023-05-20T10:37:31;15.30;99.90
42913;DHT22;50720;54.324;18.558;2023-05-20T10:40:07;15.10;99.90
42913;DHT22;50720;54.324;18.558;2023-05-20T10:42:38;14.90;99.90
42913;DHT22;50720;54.324;18.558;2023-05-20T10:45:08;14.90;99.90
42913;DHT22;50720;54.324;18.558;2023-05-20T10:47:52;14.80;99.90
42913;DHT22;50720;54.324;18.558;2023-05-20T10:50:35;14.80;99.90
42913;DHT22;50720;54.324;18.558;2023-05-20T10:53:06;14.70;99.90
42913;DHT22;50720;54.324;18.558;2023-05-20T10:55:49;14.70;99.90
42913;DHT22;50720;54.324;18.558;2023-05-20T10:58:21;14.60;99.90
42913;DHT22;50720;54.324;18.558;2023-05-20T11:00:53;14.60;99.90
42913;DHT22;50720;54.324;18.558;2023-05-20T11:03:23;14.70;99.90
42913;DHT22;50720;54.324;18.558;2023-05-20T11:05:54;14.80;99.90
42913;DHT22;50720;54.324;18.558;2023-05-20T11:08:28;15.10;99.90
42913;DHT22;50720;54.324;18.558;2023-05-20T11:10:58;15.40;99.90
42913;DHT22;50720;54.324;18.558;2023-05-20T11:13:28;15.80;99.90
42913;DHT22;50720;54.324;18.558;2023-05-20T11:16:00;16.30;99.90
42913;DHT22;50720;54.324;18.558;2023-05-20T11:18:30;16.90;99.90
42913;DHT22;50720;54.324;18.558;2023-05-20T11:21:02;17.30;99.90
42913;DHT22;50720;54.324;18.558;2023-05-20T11:23:32;17.40;99.90
42913;DHT22;50720;54.324;18.558;2023-05-20T11:26:01;17.40;99.90
42913;DHT22;50720;54.324;18.558;2023-05-20T11:28:34;17.30;99.90
42913;DHT22;50720;54.324;18.558;2023-05-20T11:31:04;17.20;99.90
42913;DHT22;50720;54.324;18.558;2023-05-20T11:33:34;17.10;99.90
42913;DHT22;50720;54.324;18.558;2023-05-20T11:36:05;17.20;99.90
42913;DHT22;50720;54.324;18.558;2023-05-20T11:38:56;17.70;99.90
42913;DHT22;50720;54.324;18.558;2023-05-20T11:41:26;18.20;99.90
42913;DHT22;50720;54.324;18.558;2023-05-20T11:43:59;18.50;99.90
42913;DHT22;50720;54.324;18.558;2023-05-20T11:46:28;18.40;99.90
42913;DHT22;50720;54.324;18.558;2023-05-20T11:49:00;18.90;99.90
42913;DHT22;50720;54.324;18.558;2023-05-20T11:51:31;18.70;99.90
42913;DHT22;50720;54.324;18.558;2023-05-20T11:54:02;18.60;99.90
42913;DHT22;50720;54.324;18.558;2023-05-20T11:56:33;18.50;99.90
42913;DHT22;50720;54.324;18.558;2023-05-20T11:59:04;18.60;99.90
42913;DHT22;50720;54.324;18.558;2023-05-20T12:01:35;18.60;99.90
42913;DHT22;50720;54.324;18.558;2023-05-20T12:04:08;18.20;99.90
42913;DHT22;50720;54.324;18.558;2023-05-20T12:06:39;18.10;99.90
42913;DHT22;50720;54.324;18.558;2023-05-20T12:09:10;18.00;99.90
42913;DHT22;50720;54.324;18.558;2023-05-20T12:11:40;17.80;99.90
42913;DHT22;50720;54.324;18.558;2023-05-20T12:14:12;17.60;99.90
42913;DHT22;50720;54.324;18.558;2023-05-20T12:16:41;17.50;99.90
42913;DHT22;50720;54.324;18.558;2023-05-20T12:19:11;17.40;99.90
42913;DHT22;50720;54.324;18.558;2023-05-20T12:21:42;17.10;99.90
42913;DHT22;50720;54.324;18.558;2023-05-20T12:24:14;17.00;99.90
42913;DHT22;50720;54.324;18.558;2023-05-20T12:26:43;16.80;99.90
42913;DHT22;50720;54.324;18.558;2023-05-20T12:29:13;16.50;99.90
42913;DHT22;50720;54.324;18.558;2023-05-20T12:31:43;16.40;99.90
42913;DHT22;50720;54.324;18.558;2023-05-20T12:34:12;16.30;99.90
42913;DHT22;50720;54.324;18.558;2023-05-20T12:36:43;16.20;99.90
42913;DHT22;50720;54.324;18.558;2023-05-20T12:39:13;16.00;99.90
42913;DHT22;50720;54.324;18.558;2023-05-20T12:41:44;16.10;99.90
42913;DHT22;50720;54.324;18.558;2023-05-20T12:44:14;15.90;99.90
42913;DHT22;50720;54.324;18.558;2023-05-20T12:46:43;15.90;99.90
42913;DHT22;50720;54.324;18.558;2023-05-20T12:49:13;15.90;99.90
42913;DHT22;50720;54.324;18.558;2023-05-20T12:51:44;16.00;99.90
42913;DHT22;50720;54.324;18.558;2023-05-20T12:54:15;16.00;99.90
42913;DHT22;50720;54.324;18.558;2023-05-20T12:56:45;16.10;99.90
42913;DHT22;50720;54.324;18.558;2023-05-20T12:59:15;16.10;99.90
42913;DHT22;50720;54.324;18.558;2023-05-20T13:01:44;16.10;99.90
42913;DHT22;50720;54.324;18.558;2023-05-20T13:04:14;16.10;99.90
42913;DHT22;50720;54.324;18.558;2023-05-20T13:06:45;16.00;99.90
42913;DHT22;50720;54.324;18.558;2023-05-20T13:09:15;16.00;99.90
42913;DHT22;50720;54.324;18.558;2023-05-20T13:11:44;16.10;99.90
42913;DHT22;50720;54.324;18.558;2023-05-20T13:14:14;16.10;99.90
42913;DHT22;50720;54.324;18.558;2023-05-20T13:16:44;16.10;99.90
42913;DHT22;50720;54.324;18.558;2023-05-20T13:19:14;16.00;99.90
42913;DHT22;50720;54.324;18.558;2023-05-20T13:21:45;16.10;99.90
42913;DHT22;50720;54.324;18.558;2023-05-20T13:24:14;16.10;99.90
42913;DHT22;50720;54.324;18.558;2023-05-20T13:26:44;16.10;99.90
42913;DHT22;50720;54.324;18.558;2023-05-20T13:29:14;16.10;99.90
42913;DHT22;50720;54.324;18.558;2023-05-20T13:31:44;16.10;99.90
42913;DHT22;50720;54.324;18.558;2023-05-20T13:34:14;16.30;99.90
42913;DHT22;50720;54.324;18.558;2023-05-20T13:36:45;16.40;99.90
42913;DHT22;50720;54.324;18.558;2023-05-20T13:39:16;16.60;99.90
42913;DHT22;50720;54.324;18.558;2023-05-20T13:41:45;16.70;99.90
42913;DHT22;50720;54.324;18.558;2023-05-20T13:44:14;16.80;99.90
42913;DHT22;50720;54.324;18.558;2023-05-20T13:46:44;16.90;99.90
42913;DHT22;50720;54.324;18.558;2023-05-20T13:49:14;17.00;99.90
42913;DHT22;50720;54.324;18.558;2023-05-20T13:51:45;17.10;99.90
42913;DHT22;50720;54.324;18.558;2023-05-20T13:54:15;17.30;99.90
42913;DHT22;50720;54.324;18.558;2023-05-20T13:56:44;17.40;99.90
42913;DHT22;50720;54.324;18.558;2023-05-20T13:59:14;17.70;99.90
42913;DHT22;50720;54.324;18.558;2023-05-20T14:01:43;17.70;99.90
42913;DHT22;50720;54.324;18.558;2023-05-20T14:04:13;17.90;99.90
42913;DHT22;50720;54.324;18.558;2023-05-20T14:06:44;18.10;99.90
42913;DHT22;50720;54.324;18.558;2023-05-20T14:09:14;18.60;99.90
42913;DHT22;50720;54.324;18.558;2023-05-20T14:11:44;18.90;99.90
42913;DHT22;50720;54.324;18.558;2023-05-20T14:14:13;18.90;99.90
42913;DHT22;50720;54.324;18.558;2023-05-20T14:16:43;19.10;99.90
42913;DHT22;50720;54.324;18.558;2023-05-20T14:19:12;19.20;99.90
42913;DHT22;50720;54.324;18.558;2023-05-20T14:21:42;19.10;99.90
42913;DHT22;50720;54.324;18.558;2023-05-20T14:24:14;19.40;99.90
42913;DHT22;50720;54.324;18.558;2023-05-20T14:26:44;19.70;99.90
42913;DHT22;50720;54.324;18.558;2023-05-20T14:29:13;20.00;99.90
42913;DHT22;50720;54.324;18.558;2023-05-20T14:31:43;20.30;99.90
42913;DHT22;50720;54.324;18.558;2023-05-20T14:34:12;20.60;99.90
42913;DHT22;50720;54.324;18.558;2023-05-20T14:36:42;20.90;99.90
42913;DHT22;50720;54.324;18.558;2023-05-20T14:39:14;21.10;99.90
42913;DHT22;50720;54.324;18.558;2023-05-20T14:41:44;21.30;99.90
42913;DHT22;50720;54.324;18.558;2023-05-20T14:44:13;21.90;99.90
42913;DHT22;50720;54.324;18.558;2023-05-20T14:46:43;22.10;99.90
42913;DHT22;50720;54.324;18.558;2023-05-20T14:49:13;22.10;99.90
42913;DHT22;50720;54.324;18.558;2023-05-20T14:51:42;22.20;99.90
42913;DHT22;50720;54.324;18.558;2023-05-20T14:54:14;21.90;99.90
42913;DHT22;50720;54.324;18.558;2023-05-20T14:56:45;21.70;99.90
42913;DHT22;50720;54.324;18.558;2023-05-20T14:59:16;21.50;99.90
42913;DHT22;50720;54.324;18.558;2023-05-20T15:01:46;21.70;99.90
42913;DHT22;50720;54.324;18.558;2023-05-20T15:04:16;21.80;99.90
42913;DHT22;50720;54.324;18.558;2023-05-20T15:06:45;22.10;99.90
42913;DHT22;50720;54.324;18.558;2023-05-20T15:09:17;22.10;99.90
42913;DHT22;50720;54.324;18.558;2023-05-20T15:11:46;21.70;99.90
42913;DHT22;50720;54.324;18.558;2023-05-20T15:14:16;21.20;99.90
42913;DHT22;50720;54.324;18.558;2023-05-20T15:16:46;20.80;99.90
42913;DHT22;50720;54.324;18.558;2023-05-20T15:19:15;20.40;99.90
42913;DHT22;50720;54.324;18.558;2023-05-20T15:21:45;20.10;99.90
42913;DHT22;50720;54.324;18.558;2023-05-20T15:24:18;19.60;99.90
42913;DHT22;50720;54.324;18.558;2023-05-20T15:26:47;19.20;99.90
42913;DHT22;50720;54.324;18.558;2023-05-20T15:29:17;18.90;99.90
42913;DHT22;50720;54.324;18.558;2023-05-20T15:31:47;18.80;99.90
42913;DHT22;50720;54.324;18.558;2023-05-20T15:34:17;18.60;99.90
42913;DHT22;50720;54.324;18.558;2023-05-20T15:36:47;18.80;99.90